sensor_id;sensor_type;location;lat;lon;timestamp;P1;durP1;ratioP1;P2;durP2;ratioP2
33844;SDS011;20145;43.118;25.694;2023-08-07T00:00:39;6.60;;;5.97;;
33844;SDS011;20145;43.118;25.694;2023-08-07T00:03:05;6.30;;;5.80;;
33844;SDS011;20145;43.118;25.694;2023-08-07T00:05:30;7.65;;;6.47;;
33844;SDS011;20145;43.118;25.694;2023-08-07T00:07:56;6.30;;;5.75;;
33844;SDS011;20145;43.118;25.694;2023-08-07T00:10:22;7.97;;;6.20;;
33844;SDS011;20145;43.118;25.694;2023-08-07T00:12:49;7.00;;;5.95;;
33844;SDS011;20145;43.118;25.694;2023-08-07T00:15:15;5.78;;;5.30;;
33844;SDS011;20145;43.118;25.694;2023-08-07T00:17:40;5.10;;;4.70;;
33844;SDS011;20145;43.118;25.694;2023-08-07T00:20:06;5.40;;;4.90;;
33844;SDS011;20145;43.118;25.694;2023-08-07T00:22:32;5.00;;;4.60;;
33844;SDS011;20145;43.118;25.694;2023-08-07T00:24:58;6.13;;;5.57;;
33844;SDS011;20145;43.118;25.694;2023-08-07T00:27:24;6.25;;;5.43;;
33844;SDS011;20145;43.118;25.694;2023-08-07T00:29:49;6.03;;;5.40;;
33844;SDS011;20145;43.118;25.694;2023-08-07T00:32:15;5.50;;;5.00;;
33844;SDS011;20145;43.118;25.694;2023-08-07T00:34:41;5.75;;;5.22;;
33844;SDS011;20145;43.118;25.694;2023-08-07T00:37:06;7.25;;;5.30;;
33844;SDS011;20145;43.118;25.694;2023-08-07T00:39:32;5.85;;;5.35;;
33844;SDS011;20145;43.118;25.694;2023-08-07T00:41:57;5.22;;;4.72;;
33844;SDS011;20145;43.118;25.694;2023-08-07T00:44:23;5.03;;;4.53;;
33844;SDS011;20145;43.118;25.694;2023-08-07T00:46:48;5.13;;;4.65;;
33844;SDS011;20145;43.118;25.694;2023-08-07T00:49:14;4.70;;;4.30;;
33844;SDS011;20145;43.118;25.694;2023-08-07T00:51:41;5.45;;;4.95;;
33844;SDS011;20145;43.118;25.694;2023-08-07T00:54:07;5.75;;;4.90;;
33844;SDS011;20145;43.118;25.694;2023-08-07T00:56:35;5.75;;;4.88;;
33844;SDS011;20145;43.118;25.694;2023-08-07T00:59:02;5.10;;;4.60;;
33844;SDS011;20145;43.118;25.694;2023-08-07T01:01:28;4.75;;;4.35;;
33844;SDS011;20145;43.118;25.694;2023-08-07T01:03:54;6.60;;;5.85;;
33844;SDS011;20145;43.118;25.694;2023-08-07T01:06:20;4.47;;;4.18;;
33844;SDS011;20145;43.118;25.694;2023-08-07T01:08:45;4.55;;;3.83;;
33844;SDS011;20145;43.118;25.694;2023-08-07T01:19:08;3.80;;;3.50;;
33844;SDS011;20145;43.118;25.694;2023-08-07T01:21:37;6.22;;;3.75;;
33844;SDS011;20145;43.118;25.694;2023-08-07T01:24:03;4.40;;;3.60;;
33844;SDS011;20145;43.118;25.694;2023-08-07T01:26:29;3.17;;;2.90;;
33844;SDS011;20145;43.118;25.694;2023-08-07T01:28:58;3.22;;;2.92;;
33844;SDS011;20145;43.118;25.694;2023-08-07T01:31:28;3.20;;;3.00;;
33844;SDS011;20145;43.118;25.694;2023-08-07T01:34:02;5.20;;;3.10;;
33844;SDS011;20145;43.118;25.694;2023-08-07T01:36:31;5.05;;;3.20;;
33844;SDS011;20145;43.118;25.694;2023-08-07T01:38:58;5.43;;;2.90;;
33844;SDS011;20145;43.118;25.694;2023-08-07T01:41:26;4.53;;;3.30;;
33844;SDS011;20145;43.118;25.694;2023-08-07T01:43:52;3.00;;;2.80;;
33844;SDS011;20145;43.118;25.694;2023-08-07T01:46:18;3.30;;;2.95;;
33844;SDS011;20145;43.118;25.694;2023-08-07T01:48:44;3.28;;;2.97;;
33844;SDS011;20145;43.118;25.694;2023-08-07T01:51:10;3.30;;;2.67;;
33844;SDS011;20145;43.118;25.694;2023-08-07T01:53:35;3.40;;;3.15;;
33844;SDS011;20145;43.118;25.694;2023-08-07T01:56:01;3.67;;;3.38;;
33844;SDS011;20145;43.118;25.694;2023-08-07T01:58:27;4.03;;;3.67;;
33844;SDS011;20145;43.118;25.694;2023-08-07T02:00:52;4.15;;;3.72;;
33844;SDS011;20145;43.118;25.694;2023-08-07T02:03:19;4.00;;;3.70;;
33844;SDS011;20145;43.118;25.694;2023-08-07T02:05:45;4.88;;;4.03;;
33844;SDS011;20145;43.118;25.694;2023-08-07T02:08:11;4.13;;;3.83;;
33844;SDS011;20145;43.118;25.694;2023-08-07T02:10:37;4.30;;;3.90;;
33844;SDS011;20145;43.118;25.694;2023-08-07T02:13:02;3.83;;;3.53;;
33844;SDS011;20145;43.118;25.694;2023-08-07T02:15:28;4.40;;;4.00;;
33844;SDS011;20145;43.118;25.694;2023-08-07T02:17:54;6.22;;;4.72;;
33844;SDS011;20145;43.118;25.694;2023-08-07T02:20:20;5.45;;;4.50;;
33844;SDS011;20145;43.118;25.694;2023-08-07T02:22:45;5.63;;;5.13;;
33844;SDS011;20145;43.118;25.694;2023-08-07T02:25:11;5.38;;;4.97;;
33844;SDS011;20145;43.118;25.694;2023-08-07T02:27:36;6.28;;;5.70;;
33844;SDS011;20145;43.118;25.694;2023-08-07T02:30:02;5.63;;;5.07;;
33844;SDS011;20145;43.118;25.694;2023-08-07T02:32:29;5.28;;;4.75;;
33844;SDS011;20145;43.118;25.694;2023-08-07T02:34:55;5.95;;;4.90;;
33844;SDS011;20145;43.118;25.694;2023-08-07T02:37:20;5.90;;;5.43;;
33844;SDS011;20145;43.118;25.694;2023-08-07T02:39:46;5.28;;;4.82;;
33844;SDS011;20145;43.118;25.694;2023-08-07T02:42:12;5.20;;;4.80;;
33844;SDS011;20145;43.118;25.694;2023-08-07T02:44:37;5.40;;;4.90;;
33844;SDS011;20145;43.118;25.694;2023-08-07T02:47:03;5.88;;;5.38;;
33844;SDS011;20145;43.118;25.694;2023-08-07T02:49:29;5.10;;;4.70;;
33844;SDS011;20145;43.118;25.694;2023-08-07T02:51:55;6.60;;;5.10;;
33844;SDS011;20145;43.118;25.694;2023-08-07T02:54:20;5.22;;;4.82;;
33844;SDS011;20145;43.118;25.694;2023-08-07T02:56:46;5.47;;;5.00;;
33844;SDS011;20145;43.118;25.694;2023-08-07T02:59:13;8.27;;;4.97;;
33844;SDS011;20145;43.118;25.694;2023-08-07T03:01:39;5.45;;;5.03;;
33844;SDS011;20145;43.118;25.694;2023-08-07T03:04:05;5.45;;;5.00;;
33844;SDS011;20145;43.118;25.694;2023-08-07T03:06:31;5.65;;;5.25;;
33844;SDS011;20145;43.118;25.694;2023-08-07T03:08:57;5.05;;;4.65;;
33844;SDS011;20145;43.118;25.694;2023-08-07T03:11:22;5.80;;;5.40;;
33844;SDS011;20145;43.118;25.694;2023-08-07T03:13:48;6.15;;;5.68;;
33844;SDS011;20145;43.118;25.694;2023-08-07T03:16:14;5.53;;;5.13;;
33844;SDS011;20145;43.118;25.694;2023-08-07T03:18:40;6.20;;;5.60;;
33844;SDS011;20145;43.118;25.694;2023-08-07T03:21:05;5.80;;;5.30;;
33844;SDS011;20145;43.118;25.694;2023-08-07T03:23:31;6.57;;;5.45;;
33844;SDS011;20145;43.118;25.694;2023-08-07T03:26:07;6.00;;;5.50;;
33844;SDS011;20145;43.118;25.694;2023-08-07T03:28:35;5.45;;;4.95;;
33844;SDS011;20145;43.118;25.694;2023-08-07T03:31:01;5.57;;;5.13;;
33844;SDS011;20145;43.118;25.694;2023-08-07T03:33:27;5.03;;;4.63;;
33844;SDS011;20145;43.118;25.694;2023-08-07T03:35:53;5.65;;;5.15;;
33844;SDS011;20145;43.118;25.694;2023-08-07T03:38:18;5.05;;;4.65;;
33844;SDS011;20145;43.118;25.694;2023-08-07T03:40:44;5.43;;;4.95;;
33844;SDS011;20145;43.118;25.694;2023-08-07T03:43:09;5.10;;;4.60;;
33844;SDS011;20145;43.118;25.694;2023-08-07T03:45:35;5.55;;;4.68;;
33844;SDS011;20145;43.118;25.694;2023-08-07T03:48:01;6.03;;;5.43;;
33844;SDS011;20145;43.118;25.694;2023-08-07T03:50:27;5.88;;;5.13;;
33844;SDS011;20145;43.118;25.694;2023-08-07T03:52:52;5.72;;;5.22;;
33844;SDS011;20145;43.118;25.694;2023-08-07T03:55:18;5.10;;;4.70;;
33844;SDS011;20145;43.118;25.694;2023-08-07T03:57:43;5.07;;;4.57;;
33844;SDS011;20145;43.118;25.694;2023-08-07T04:00:09;9.50;;;4.82;;
33844;SDS011;20145;43.118;25.694;2023-08-07T04:02:35;4.90;;;4.10;;
33844;SDS011;20145;43.118;25.694;2023-08-07T04:05:01;5.25;;;4.82;;
33844;SDS011;20145;43.118;25.694;2023-08-07T04:07:27;4.47;;;4.18;;
33844;SDS011;20145;43.118;25.694;2023-08-07T04:09:53;5.18;;;4.68;;
33844;SDS011;20145;43.118;25.694;2023-08-07T04:12:18;5.13;;;4.28;;
33844;SDS011;20145;43.118;25.694;2023-08-07T04:14:44;4.30;;;3.92;;
33844;SDS011;20145;43.118;25.694;2023-08-07T04:17:09;3.58;;;3.28;;
33844;SDS011;20145;43.118;25.694;2023-08-07T04:19:36;3.67;;;3.38;;
33844;SDS011;20145;43.118;25.694;2023-08-07T04:22:02;5.68;;;3.50;;
33844;SDS011;20145;43.118;25.694;2023-08-07T04:24:28;6.30;;;3.65;;
33844;SDS011;20145;43.118;25.694;2023-08-07T04:26:53;3.83;;;3.53;;
33844;SDS011;20145;43.118;25.694;2023-08-07T04:29:19;4.13;;;2.88;;
33844;SDS011;20145;43.118;25.694;2023-08-07T04:31:44;4.07;;;3.17;;
33844;SDS011;20145;43.118;25.694;2023-08-07T04:34:10;3.55;;;3.25;;
33844;SDS011;20145;43.118;25.694;2023-08-07T04:36:36;3.78;;;3.05;;
33844;SDS011;20145;43.118;25.694;2023-08-07T04:39:01;4.50;;;4.03;;
33844;SDS011;20145;43.118;25.694;2023-08-07T04:41:27;4.18;;;3.88;;
33844;SDS011;20145;43.118;25.694;2023-08-07T04:43:53;4.38;;;3.97;;
33844;SDS011;20145;43.118;25.694;2023-08-07T04:46:18;4.32;;;4.03;;
33844;SDS011;20145;43.118;25.694;2023-08-07T04:48:44;13.90;;;4.47;;
33844;SDS011;20145;43.118;25.694;2023-08-07T04:51:09;4.43;;;3.75;;
33844;SDS011;20145;43.118;25.694;2023-08-07T04:53:35;6.75;;;4.63;;
33844;SDS011;20145;43.118;25.694;2023-08-07T04:56:00;7.80;;;3.60;;
33844;SDS011;20145;43.118;25.694;2023-08-07T04:58:26;3.28;;;3.08;;
33844;SDS011;20145;43.118;25.694;2023-08-07T05:00:58;4.55;;;4.15;;
33844;SDS011;20145;43.118;25.694;2023-08-07T05:03:24;3.70;;;3.40;;
33844;SDS011;20145;43.118;25.694;2023-08-07T05:05:50;4.07;;;3.15;;
33844;SDS011;20145;43.118;25.694;2023-08-07T05:08:16;4.88;;;3.38;;
33844;SDS011;20145;43.118;25.694;2023-08-07T05:10:42;3.42;;;2.83;;
33844;SDS011;20145;43.118;25.694;2023-08-07T05:13:07;3.78;;;3.47;;
33844;SDS011;20145;43.118;25.694;2023-08-07T05:15:33;3.55;;;3.25;;
33844;SDS011;20145;43.118;25.694;2023-08-07T05:17:59;3.42;;;3.22;;
33844;SDS011;20145;43.118;25.694;2023-08-07T05:20:25;3.83;;;3.53;;
33844;SDS011;20145;43.118;25.694;2023-08-07T05:22:50;3.30;;;3.00;;
33844;SDS011;20145;43.118;25.694;2023-08-07T05:25:16;5.60;;;3.30;;
33844;SDS011;20145;43.118;25.694;2023-08-07T05:27:42;3.33;;;2.88;;
33844;SDS011;20145;43.118;25.694;2023-08-07T05:30:09;3.88;;;3.58;;
33844;SDS011;20145;43.118;25.694;2023-08-07T05:32:35;4.00;;;3.60;;
33844;SDS011;20145;43.118;25.694;2023-08-07T05:35:05;3.65;;;3.33;;
33844;SDS011;20145;43.118;25.694;2023-08-07T05:37:32;3.65;;;3.40;;
33844;SDS011;20145;43.118;25.694;2023-08-07T05:39:58;4.10;;;3.10;;
33844;SDS011;20145;43.118;25.694;2023-08-07T05:42:23;3.20;;;3.00;;
33844;SDS011;20145;43.118;25.694;2023-08-07T05:44:49;3.42;;;3.13;;
33844;SDS011;20145;43.118;25.694;2023-08-07T05:47:14;2.97;;;2.78;;
33844;SDS011;20145;43.118;25.694;2023-08-07T05:49:40;3.08;;;2.88;;
33844;SDS011;20145;43.118;25.694;2023-08-07T05:52:06;5.43;;;2.78;;
33844;SDS011;20145;43.118;25.694;2023-08-07T05:54:32;3.13;;;2.90;;
33844;SDS011;20145;43.118;25.694;2023-08-07T05:56:58;4.22;;;3.28;;
33844;SDS011;20145;43.118;25.694;2023-08-07T05:59:24;8.32;;;3.08;;
33844;SDS011;20145;43.118;25.694;2023-08-07T06:01:49;3.58;;;3.00;;
33844;SDS011;20145;43.118;25.694;2023-08-07T06:04:16;2.83;;;2.53;;
33844;SDS011;20145;43.118;25.694;2023-08-07T06:06:41;5.03;;;2.90;;
33844;SDS011;20145;43.118;25.694;2023-08-07T06:09:08;3.97;;;2.65;;
33844;SDS011;20145;43.118;25.694;2023-08-07T06:11:33;5.20;;;3.60;;
33844;SDS011;20145;43.118;25.694;2023-08-07T06:13:59;3.45;;;2.78;;
33844;SDS011;20145;43.118;25.694;2023-08-07T06:16:25;3.70;;;2.90;;
33844;SDS011;20145;43.118;25.694;2023-08-07T06:18:50;4.82;;;2.90;;
33844;SDS011;20145;43.118;25.694;2023-08-07T06:21:16;2.83;;;2.63;;
33844;SDS011;20145;43.118;25.694;2023-08-07T06:23:42;3.67;;;2.78;;
33844;SDS011;20145;43.118;25.694;2023-08-07T06:26:07;3.20;;;2.90;;
33844;SDS011;20145;43.118;25.694;2023-08-07T06:28:34;4.10;;;2.90;;
33844;SDS011;20145;43.118;25.694;2023-08-07T06:31:04;2.65;;;2.45;;
33844;SDS011;20145;43.118;25.694;2023-08-07T06:33:31;3.78;;;2.55;;
33844;SDS011;20145;43.118;25.694;2023-08-07T06:35:58;12.50;;;3.45;;
33844;SDS011;20145;43.118;25.694;2023-08-07T06:38:24;2.35;;;2.22;;
33844;SDS011;20145;43.118;25.694;2023-08-07T06:40:50;2.60;;;2.40;;
33844;SDS011;20145;43.118;25.694;2023-08-07T06:43:15;3.13;;;2.75;;
33844;SDS011;20145;43.118;25.694;2023-08-07T06:45:41;2.47;;;2.28;;
33844;SDS011;20145;43.118;25.694;2023-08-07T06:48:06;2.83;;;2.63;;
33844;SDS011;20145;43.118;25.694;2023-08-07T06:50:32;2.60;;;2.25;;
33844;SDS011;20145;43.118;25.694;2023-08-07T06:52:58;2.67;;;2.47;;
33844;SDS011;20145;43.118;25.694;2023-08-07T06:55:23;2.97;;;2.78;;
33844;SDS011;20145;43.118;25.694;2023-08-07T06:57:49;3.10;;;2.90;;
33844;SDS011;20145;43.118;25.694;2023-08-07T07:00:15;3.35;;;2.63;;
33844;SDS011;20145;43.118;25.694;2023-08-07T07:02:41;3.10;;;2.65;;
33844;SDS011;20145;43.118;25.694;2023-08-07T07:05:07;3.28;;;2.97;;
33844;SDS011;20145;43.118;25.694;2023-08-07T07:07:32;2.78;;;2.58;;
33844;SDS011;20145;43.118;25.694;2023-08-07T07:09:58;2.92;;;2.72;;
33844;SDS011;20145;43.118;25.694;2023-08-07T07:12:26;4.63;;;3.13;;
33844;SDS011;20145;43.118;25.694;2023-08-07T07:14:54;3.42;;;3.17;;
33844;SDS011;20145;43.118;25.694;2023-08-07T07:17:20;4.63;;;3.65;;
33844;SDS011;20145;43.118;25.694;2023-08-07T07:19:45;4.97;;;3.17;;
33844;SDS011;20145;43.118;25.694;2023-08-07T07:22:11;3.53;;;2.78;;
33844;SDS011;20145;43.118;25.694;2023-08-07T07:24:37;5.95;;;2.58;;
33844;SDS011;20145;43.118;25.694;2023-08-07T07:27:04;2.63;;;2.42;;
33844;SDS011;20145;43.118;25.694;2023-08-07T07:29:29;2.70;;;2.50;;
33844;SDS011;20145;43.118;25.694;2023-08-07T07:31:55;2.67;;;2.47;;
33844;SDS011;20145;43.118;25.694;2023-08-07T07:34:21;2.13;;;2.03;;
33844;SDS011;20145;43.118;25.694;2023-08-07T07:36:47;3.40;;;2.30;;
33844;SDS011;20145;43.118;25.694;2023-08-07T07:39:12;2.28;;;2.10;;
33844;SDS011;20145;43.118;25.694;2023-08-07T07:41:38;2.95;;;2.30;;
33844;SDS011;20145;43.118;25.694;2023-08-07T07:44:04;4.30;;;2.50;;
33844;SDS011;20145;43.118;25.694;2023-08-07T07:46:30;7.43;;;3.40;;
33844;SDS011;20145;43.118;25.694;2023-08-07T07:48:57;2.60;;;2.40;;
33844;SDS011;20145;43.118;25.694;2023-08-07T07:51:22;2.40;;;2.20;;
33844;SDS011;20145;43.118;25.694;2023-08-07T07:53:48;2.75;;;2.25;;
33844;SDS011;20145;43.118;25.694;2023-08-07T07:56:14;2.97;;;1.95;;
33844;SDS011;20145;43.118;25.694;2023-08-07T07:58:39;2.22;;;2.13;;
33844;SDS011;20145;43.118;25.694;2023-08-07T08:01:06;2.92;;;2.10;;
33844;SDS011;20145;43.118;25.694;2023-08-07T08:03:32;2.75;;;2.55;;
33844;SDS011;20145;43.118;25.694;2023-08-07T08:05:59;2.80;;;2.60;;
33844;SDS011;20145;43.118;25.694;2023-08-07T08:08:25;3.03;;;2.30;;
33844;SDS011;20145;43.118;25.694;2023-08-07T08:10:51;3.35;;;2.20;;
33844;SDS011;20145;43.118;25.694;2023-08-07T08:13:17;2.22;;;2.00;;
33844;SDS011;20145;43.118;25.694;2023-08-07T08:15:43;3.67;;;2.22;;
33844;SDS011;20145;43.118;25.694;2023-08-07T08:18:10;2.35;;;2.10;;
33844;SDS011;20145;43.118;25.694;2023-08-07T08:20:37;3.08;;;2.20;;
33844;SDS011;20145;43.118;25.694;2023-08-07T08:23:13;2.65;;;2.15;;
33844;SDS011;20145;43.118;25.694;2023-08-07T08:25:39;2.85;;;2.33;;
33844;SDS011;20145;43.118;25.694;2023-08-07T08:28:06;3.55;;;2.63;;
33844;SDS011;20145;43.118;25.694;2023-08-07T08:30:32;4.15;;;2.20;;
33844;SDS011;20145;43.118;25.694;2023-08-07T08:32:57;6.82;;;2.30;;
33844;SDS011;20145;43.118;25.694;2023-08-07T08:35:23;2.22;;;2.13;;
33844;SDS011;20145;43.118;25.694;2023-08-07T08:37:48;3.08;;;1.98;;
33844;SDS011;20145;43.118;25.694;2023-08-07T08:40:14;2.30;;;1.90;;
33844;SDS011;20145;43.118;25.694;2023-08-07T08:42:43;3.58;;;1.70;;
33844;SDS011;20145;43.118;25.694;2023-08-07T08:45:17;2.30;;;2.10;;
33844;SDS011;20145;43.118;25.694;2023-08-07T08:47:47;2.30;;;2.08;;
33844;SDS011;20145;43.118;25.694;2023-08-07T08:50:17;2.20;;;1.80;;
33844;SDS011;20145;43.118;25.694;2023-08-07T08:52:44;1.80;;;1.40;;
33844;SDS011;20145;43.118;25.694;2023-08-07T08:55:27;8.90;;;2.10;;
33844;SDS011;20145;43.118;25.694;2023-08-07T09:00:26;2.72;;;1.67;;
33844;SDS011;20145;43.118;25.694;2023-08-07T09:02:54;1.45;;;1.10;;
33844;SDS011;20145;43.118;25.694;2023-08-07T09:05:20;1.70;;;1.35;;
33844;SDS011;20145;43.118;25.694;2023-08-07T09:07:49;1.35;;;1.25;;
33844;SDS011;20145;43.118;25.694;2023-08-07T09:10:15;3.47;;;1.10;;
33844;SDS011;20145;43.118;25.694;2023-08-07T09:13:00;5.85;;;1.70;;
33844;SDS011;20145;43.118;25.694;2023-08-07T09:15:31;2.10;;;1.40;;
33844;SDS011;20145;43.118;25.694;2023-08-07T09:17:58;3.45;;;1.50;;
33844;SDS011;20145;43.118;25.694;2023-08-07T09:20:24;1.63;;;1.40;;
33844;SDS011;20145;43.118;25.694;2023-08-07T09:22:50;2.47;;;1.20;;
33844;SDS011;20145;43.118;25.694;2023-08-07T09:25:26;2.50;;;1.33;;
33844;SDS011;20145;43.118;25.694;2023-08-07T09:27:56;2.72;;;1.20;;
33844;SDS011;20145;43.118;25.694;2023-08-07T09:30:25;1.33;;;1.20;;
33844;SDS011;20145;43.118;25.694;2023-08-07T09:32:53;3.25;;;1.00;;
33844;SDS011;20145;43.118;25.694;2023-08-07T09:35:22;8.35;;;1.13;;
33844;SDS011;20145;43.118;25.694;2023-08-07T09:37:49;1.08;;;0.80;;
33844;SDS011;20145;43.118;25.694;2023-08-07T09:40:15;1.13;;;0.90;;
33844;SDS011;20145;43.118;25.694;2023-08-07T09:42:41;1.45;;;1.00;;
33844;SDS011;20145;43.118;25.694;2023-08-07T09:45:28;2.15;;;1.27;;
33844;SDS011;20145;43.118;25.694;2023-08-07T09:48:01;1.10;;;1.00;;
33844;SDS011;20145;43.118;25.694;2023-08-07T09:50:31;2.70;;;0.85;;
33844;SDS011;20145;43.118;25.694;2023-08-07T09:52:57;1.80;;;1.15;;
33844;SDS011;20145;43.118;25.694;2023-08-07T09:55:24;1.65;;;1.30;;
33844;SDS011;20145;43.118;25.694;2023-08-07T09:57:50;3.20;;;1.25;;
33844;SDS011;20145;43.118;25.694;2023-08-07T10:00:16;1.42;;;1.00;;
33844;SDS011;20145;43.118;25.694;2023-08-07T10:02:45;1.42;;;1.10;;
33844;SDS011;20145;43.118;25.694;2023-08-07T10:05:12;1.40;;;0.93;;
33844;SDS011;20145;43.118;25.694;2023-08-07T10:07:38;1.88;;;1.20;;
33844;SDS011;20145;43.118;25.694;2023-08-07T10:10:05;1.98;;;1.35;;
33844;SDS011;20145;43.118;25.694;2023-08-07T10:12:32;1.35;;;1.10;;
33844;SDS011;20145;43.118;25.694;2023-08-07T10:15:01;1.40;;;0.98;;
33844;SDS011;20145;43.118;25.694;2023-08-07T10:17:27;1.45;;;1.20;;
33844;SDS011;20145;43.118;25.694;2023-08-07T10:19:53;1.40;;;1.17;;
33844;SDS011;20145;43.118;25.694;2023-08-07T10:22:20;2.95;;;1.40;;
33844;SDS011;20145;43.118;25.694;2023-08-07T10:24:51;3.80;;;1.30;;
33844;SDS011;20145;43.118;25.694;2023-08-07T10:27:19;2.25;;;0.93;;
33844;SDS011;20145;43.118;25.694;2023-08-07T10:29:47;1.70;;;1.05;;
33844;SDS011;20145;43.118;25.694;2023-08-07T10:32:14;1.98;;;1.08;;
33844;SDS011;20145;43.118;25.694;2023-08-07T10:34:51;4.15;;;0.93;;
33844;SDS011;20145;43.118;25.694;2023-08-07T10:40:07;2.80;;;1.10;;
33844;SDS011;20145;43.118;25.694;2023-08-07T10:43:17;1.80;;;1.00;;
33844;SDS011;20145;43.118;25.694;2023-08-07T10:45:25;1.20;;;0.82;;
33844;SDS011;20145;43.118;25.694;2023-08-07T10:50:28;0.98;;;0.82;;
33844;SDS011;20145;43.118;25.694;2023-08-07T10:52:55;1.20;;;1.10;;
33844;SDS011;20145;43.118;25.694;2023-08-07T10:55:21;1.08;;;0.98;;
33844;SDS011;20145;43.118;25.694;2023-08-07T10:57:48;0.98;;;0.88;;
33844;SDS011;20145;43.118;25.694;2023-08-07T11:00:14;1.15;;;0.93;;
33844;SDS011;20145;43.118;25.694;2023-08-07T11:02:41;1.50;;;1.25;;
33844;SDS011;20145;43.118;25.694;2023-08-07T11:05:07;1.02;;;0.85;;
33844;SDS011;20145;43.118;25.694;2023-08-07T11:07:33;0.90;;;0.70;;
33844;SDS011;20145;43.118;25.694;2023-08-07T11:10:00;0.98;;;0.82;;
33844;SDS011;20145;43.118;25.694;2023-08-07T11:12:26;0.85;;;0.85;;
33844;SDS011;20145;43.118;25.694;2023-08-07T11:14:52;0.98;;;0.90;;
33844;SDS011;20145;43.118;25.694;2023-08-07T11:17:24;0.70;;;0.70;;
33844;SDS011;20145;43.118;25.694;2023-08-07T11:19:50;1.38;;;1.20;;
33844;SDS011;20145;43.118;25.694;2023-08-07T11:22:17;3.40;;;1.02;;
33844;SDS011;20145;43.118;25.694;2023-08-07T11:24:43;2.53;;;1.05;;
33844;SDS011;20145;43.118;25.694;2023-08-07T11:27:08;1.30;;;0.85;;
33844;SDS011;20145;43.118;25.694;2023-08-07T11:29:35;2.17;;;0.82;;
33844;SDS011;20145;43.118;25.694;2023-08-07T11:32:01;2.15;;;1.13;;
33844;SDS011;20145;43.118;25.694;2023-08-07T11:34:27;1.05;;;0.80;;
33844;SDS011;20145;43.118;25.694;2023-08-07T11:36:53;0.80;;;0.80;;
33844;SDS011;20145;43.118;25.694;2023-08-07T11:39:20;2.65;;;1.10;;
33844;SDS011;20145;43.118;25.694;2023-08-07T11:41:46;2.25;;;0.65;;
33844;SDS011;20145;43.118;25.694;2023-08-07T11:44:13;1.95;;;1.10;;
33844;SDS011;20145;43.118;25.694;2023-08-07T11:46:39;1.83;;;1.15;;
33844;SDS011;20145;43.118;25.694;2023-08-07T11:49:05;2.30;;;0.93;;
33844;SDS011;20145;43.118;25.694;2023-08-07T11:51:33;2.47;;;2.05;;
33844;SDS011;20145;43.118;25.694;2023-08-07T11:53:58;19.45;;;2.38;;
33844;SDS011;20145;43.118;25.694;2023-08-07T11:56:24;3.95;;;1.02;;
33844;SDS011;20145;43.118;25.694;2023-08-07T11:58:51;10.70;;;1.98;;
33844;SDS011;20145;43.118;25.694;2023-08-07T12:01:18;11.32;;;1.88;;
33844;SDS011;20145;43.118;25.694;2023-08-07T12:03:52;2.15;;;1.02;;
33844;SDS011;20145;43.118;25.694;2023-08-07T12:06:20;2.13;;;1.10;;
33844;SDS011;20145;43.118;25.694;2023-08-07T12:08:48;2.20;;;1.15;;
33844;SDS011;20145;43.118;25.694;2023-08-07T12:11:16;4.13;;;1.15;;
33844;SDS011;20145;43.118;25.694;2023-08-07T12:13:42;2.80;;;0.85;;
33844;SDS011;20145;43.118;25.694;2023-08-07T12:16:10;2.72;;;1.17;;
33844;SDS011;20145;43.118;25.694;2023-08-07T12:18:42;1.73;;;0.82;;
33844;SDS011;20145;43.118;25.694;2023-08-07T12:21:21;4.05;;;0.90;;
33844;SDS011;20145;43.118;25.694;2023-08-07T12:23:50;1.85;;;0.90;;
33844;SDS011;20145;43.118;25.694;2023-08-07T12:26:17;6.05;;;1.08;;
33844;SDS011;20145;43.118;25.694;2023-08-07T12:28:43;0.52;;;0.52;;
33844;SDS011;20145;43.118;25.694;2023-08-07T12:31:09;1.50;;;0.90;;
33844;SDS011;20145;43.118;25.694;2023-08-07T12:33:35;1.95;;;0.70;;
33844;SDS011;20145;43.118;25.694;2023-08-07T12:36:01;1.08;;;0.95;;
33844;SDS011;20145;43.118;25.694;2023-08-07T12:38:27;0.75;;;0.75;;
33844;SDS011;20145;43.118;25.694;2023-08-07T12:40:53;0.95;;;0.63;;
33844;SDS011;20145;43.118;25.694;2023-08-07T12:43:19;1.05;;;1.00;;
33844;SDS011;20145;43.118;25.694;2023-08-07T12:45:45;1.50;;;0.90;;
33844;SDS011;20145;43.118;25.694;2023-08-07T12:48:11;1.13;;;0.70;;
33844;SDS011;20145;43.118;25.694;2023-08-07T12:50:36;1.48;;;0.82;;
33844;SDS011;20145;43.118;25.694;2023-08-07T12:53:03;1.15;;;0.60;;
33844;SDS011;20145;43.118;25.694;2023-08-07T12:55:28;1.17;;;0.68;;
33844;SDS011;20145;43.118;25.694;2023-08-07T12:57:55;4.65;;;2.00;;
33844;SDS011;20145;43.118;25.694;2023-08-07T13:00:21;2.20;;;0.52;;
33844;SDS011;20145;43.118;25.694;2023-08-07T13:02:48;1.90;;;0.77;;
33844;SDS011;20145;43.118;25.694;2023-08-07T13:05:15;0.95;;;0.95;;
33844;SDS011;20145;43.118;25.694;2023-08-07T13:07:43;0.40;;;0.40;;
33844;SDS011;20145;43.118;25.694;2023-08-07T13:10:10;1.08;;;0.60;;
33844;SDS011;20145;43.118;25.694;2023-08-07T13:12:38;0.65;;;0.50;;
33844;SDS011;20145;43.118;25.694;2023-08-07T13:15:05;0.98;;;0.68;;
33844;SDS011;20145;43.118;25.694;2023-08-07T13:17:37;0.60;;;0.60;;
33844;SDS011;20145;43.118;25.694;2023-08-07T13:20:03;5.03;;;0.90;;
33844;SDS011;20145;43.118;25.694;2023-08-07T13:25:02;0.60;;;0.60;;
33844;SDS011;20145;43.118;25.694;2023-08-07T13:27:29;1.77;;;0.70;;
33844;SDS011;20145;43.118;25.694;2023-08-07T13:29:55;2.20;;;0.70;;
33844;SDS011;20145;43.118;25.694;2023-08-07T13:32:21;1.10;;;0.50;;
33844;SDS011;20145;43.118;25.694;2023-08-07T13:34:46;0.50;;;0.50;;
33844;SDS011;20145;43.118;25.694;2023-08-07T13:37:13;3.60;;;0.70;;
33844;SDS011;20145;43.118;25.694;2023-08-07T13:39:39;1.70;;;0.40;;
33844;SDS011;20145;43.118;25.694;2023-08-07T13:42:05;1.15;;;0.55;;
33844;SDS011;20145;43.118;25.694;2023-08-07T13:44:32;2.80;;;0.60;;
33844;SDS011;20145;43.118;25.694;2023-08-07T13:46:59;0.40;;;0.40;;
33844;SDS011;20145;43.118;25.694;2023-08-07T13:49:24;1.88;;;0.60;;
33844;SDS011;20145;43.118;25.694;2023-08-07T13:51:50;3.70;;;0.68;;
33844;SDS011;20145;43.118;25.694;2023-08-07T13:54:16;0.73;;;0.60;;
33844;SDS011;20145;43.118;25.694;2023-08-07T13:56:42;1.52;;;0.95;;
33844;SDS011;20145;43.118;25.694;2023-08-07T13:59:07;2.25;;;0.80;;
33844;SDS011;20145;43.118;25.694;2023-08-07T14:01:34;1.92;;;0.60;;
33844;SDS011;20145;43.118;25.694;2023-08-07T14:04:00;0.80;;;0.70;;
33844;SDS011;20145;43.118;25.694;2023-08-07T14:06:27;0.98;;;0.60;;
33844;SDS011;20145;43.118;25.694;2023-08-07T14:08:52;0.90;;;0.80;;
33844;SDS011;20145;43.118;25.694;2023-08-07T14:11:18;0.85;;;0.57;;
33844;SDS011;20145;43.118;25.694;2023-08-07T14:13:45;1.73;;;0.75;;
33844;SDS011;20145;43.118;25.694;2023-08-07T14:16:11;2.35;;;0.70;;
33844;SDS011;20145;43.118;25.694;2023-08-07T14:18:37;0.75;;;0.63;;
33844;SDS011;20145;43.118;25.694;2023-08-07T14:21:03;1.00;;;0.60;;
33844;SDS011;20145;43.118;25.694;2023-08-07T14:23:29;3.13;;;0.70;;
33844;SDS011;20145;43.118;25.694;2023-08-07T14:25:55;5.95;;;0.70;;
33844;SDS011;20145;43.118;25.694;2023-08-07T14:28:20;1.30;;;0.55;;
33844;SDS011;20145;43.118;25.694;2023-08-07T14:30:47;1.45;;;0.55;;
33844;SDS011;20145;43.118;25.694;2023-08-07T14:36:06;3.10;;;0.65;;
33844;SDS011;20145;43.118;25.694;2023-08-07T14:38:46;6.15;;;1.95;;
33844;SDS011;20145;43.118;25.694;2023-08-07T14:46:49;1.25;;;0.60;;
33844;SDS011;20145;43.118;25.694;2023-08-07T14:49:16;1.83;;;0.60;;
33844;SDS011;20145;43.118;25.694;2023-08-07T14:51:43;0.88;;;0.85;;
33844;SDS011;20145;43.118;25.694;2023-08-07T14:54:11;2.45;;;0.82;;
33844;SDS011;20145;43.118;25.694;2023-08-07T14:59:41;0.70;;;0.70;;